This is the latest recevied weather packets stored in our database for station/object WMKP. If no packets are shown the sender has not sent any weather packets the latest 10 day(s).
| Time | Temp. | Humidity | Pressure | Rain* | Wind** | Luminosity | Snow |
|---|---|---|---|---|---|---|---|
| 1777577389 | 25.56° C | 88% | 1009 hPa | - | - | - | - |
| 1777576214 | 27.78° C | 83% | 1009 hPa | - | - | - | - |
| 1777574395 | 27.78° C | 78% | 1009 hPa | - | - | - | - |
| 1777572614 | 26.67° C | 83% | 1009 hPa | - | - | - | - |
| 1777570796 | 26.67° C | 88% | 1010 hPa | - | - | - | - |
| 1777569021 | 27.78° C | 78% | 1010 hPa | - | - | - | - |
| 1777567789 | 27.78° C | 78% | 1010 hPa | - | - | - | - |
| 1777565413 | 27.78° C | 83% | 1010 hPa | - | - | - | - |
| 1777563595 | 27.78° C | 78% | 1011 hPa | - | - | - | - |
| 1777561814 | 27.78° C | 83% | 1010 hPa | - | - | - | - |
| 1777559995 | 26.67° C | 83% | 1010 hPa | - | - | - | - |
| 1777558213 | 27.78° C | 78% | 1009 hPa | - | - | - | - |
| 1777556398 | 28.89° C | 70% | 1009 hPa | - | - | - | - |
| 1777554621 | 28.89° C | 79% | 1008 hPa | - | - | - | - |
| 1777552800 | 30° C | 74% | 1007 hPa | - | - | - | - |
| 1777551013 | 30° C | 74% | 1007 hPa | - | - | - | - |
| 1777549788 | 30° C | 74% | 1007 hPa | - | - | - | - |
| 1777549197 | 30° C | 74% | 1007 hPa | - | - | - | - |
| 1777547413 | 30° C | 74% | 1007 hPa | - | - | - | - |
| 1777545595 | 30° C | 74% | 1006 hPa | - | - | - | - |
| 1777543813 | 30° C | 74% | 1006 hPa | - | - | - | - |
| 1777542588 | 30° C | 74% | 1006 hPa | - | - | - | - |
| 1777541995 | 30° C | 74% | 1006 hPa | - | - | - | - |
| 1777540220 | 30.56° C | 66% | 1006 hPa | - | - | - | - |
| 1777538399 | 31.67° C | 66% | 1006 hPa | - | - | - | - |
* Rain since midnight (hover to see other rain measurements)
** Current wind speed in m/s (hover to see current wind gust speed)